Time;durP1;ratioP1;P1;durP2;ratioP2;P2;SDS_P1;SDS_P2;PMS_P1;PMS_P2;Temp;Humidity;BMP_temperature;BMP_pressure;BME280_temperature;BME280_humidity;BME280_pressure;Samples;Min_cycle;Max_cycle;Signal;HPM_P1;HPM_P2
2021/10/17 00:02:19;;;;;;;20.05;2.40;;;;;;;;;;5063036;28;20391;-66
2021/10/17 00:04:46;;;;;;;17.15;3.08;;;;;;;;;;5047816;28;20497;-66
2021/10/17 00:07:14;;;;;;;17.52;2.50;;;;;;;;;;5068277;28;20570;-66
2021/10/17 00:09:40;;;;;;;14.40;3.15;;;;;;;;;;5070430;28;20049;-66
2021/10/17 00:12:09;;;;;;;16.70;2.75;;;;;;;;;;5061587;28;20080;-66
2021/10/17 00:14:36;;;;;;;17.58;2.63;;;;;;;;;;5066311;28;20480;-66
2021/10/17 00:17:03;;;;;;;18.05;2.83;;;;;;;;;;5062786;28;20045;-66
2021/10/17 00:19:30;;;;;;;;;;;;;;;;;;5067143;28;20076;-66
2021/10/17 00:21:57;;;;;;;10.73;2.17;;;;;;;;;;5065401;28;19975;-66
2021/10/17 00:24:23;;;;;;;14.05;2.90;;;;;;;;;;5064537;28;20548;-66
2021/10/17 00:26:50;;;;;;;12.80;2.28;;;;;;;;;;5065398;28;20143;-66
2021/10/17 00:29:17;;;;;;;14.68;2.78;;;;;;;;;;5063733;28;20135;-66
2021/10/17 00:31:43;;;;;;;14.30;2.10;;;;;;;;;;5061414;28;20560;-67
2021/10/17 00:34:10;;;;;;;10.73;2.07;;;;;;;;;;5068423;28;20127;-66
2021/10/17 00:36:36;;;;;;;15.90;2.38;;;;;;;;;;5051381;28;20068;-66
2021/10/17 00:39:03;;;;;;;12.18;2.30;;;;;;;;;;5066529;28;20082;-66
2021/10/17 00:41:30;;;;;;;15.45;3.00;;;;;;;;;;5066099;28;20175;-66
2021/10/17 00:43:58;;;;;;;15.10;2.05;;;;;;;;;;5062344;28;20076;-66
2021/10/17 00:46:24;;;;;;;9.77;1.95;;;;;;;;;;5067439;28;20556;-66
2021/10/17 00:48:51;;;;;;;14.93;3.00;;;;;;;;;;5064837;28;20051;-66
2021/10/17 00:51:17;;;;;;;20.05;2.45;;;;;;;;;;5056654;28;20084;-66
2021/10/17 00:53:44;;;;;;;13.77;2.08;;;;;;;;;;5064053;28;20245;-66
2021/10/17 00:56:10;;;;;;;8.32;1.60;;;;;;;;;;5060877;28;20079;-66
2021/10/17 00:58:37;;;;;;;14.63;2.08;;;;;;;;;;5068925;28;20171;-66
2021/10/17 01:01:03;;;;;;;15.82;2.30;;;;;;;;;;5066207;28;20140;-66
2021/10/17 01:03:31;;;;;;;14.82;2.47;;;;;;;;;;5066776;28;20055;-66
2021/10/17 01:05:57;;;;;;;17.70;2.53;;;;;;;;;;5064758;28;20131;-67
2021/10/17 01:08:26;;;;;;;15.63;2.50;;;;;;;;;;5061888;28;20128;-66
2021/10/17 01:10:54;;;;;;;14.25;2.28;;;;;;;;;;5065364;28;20098;-66
2021/10/17 01:13:22;;;;;;;12.18;2.53;;;;;;;;;;5063429;28;20496;-66
2021/10/17 01:15:49;;;;;;;16.90;2.10;;;;;;;;;;5060919;28;20576;-66
2021/10/17 01:18:16;;;;;;;13.52;2.47;;;;;;;;;;5059975;28;20510;-66
2021/10/17 01:20:43;;;;;;;10.70;2.28;;;;;;;;;;5064057;28;20048;-67
2021/10/17 01:23:09;;;;;;;17.65;2.28;;;;;;;;;;5059604;28;20572;-66
2021/10/17 01:25:36;;;;;;;10.73;1.90;;;;;;;;;;5066822;28;20102;-66
2021/10/17 01:28:03;;;;;;;12.88;1.88;;;;;;;;;;5067064;28;20080;-66
2021/10/17 01:30:33;;;;;;;10.63;2.08;;;;;;;;;;5062636;28;20132;-66
2021/10/17 01:33:00;;;;;;;8.05;1.58;;;;;;;;;;5066241;28;20102;-66
2021/10/17 01:35:26;;;;;;;15.13;1.83;;;;;;;;;;5063186;28;20079;-66
2021/10/17 01:37:53;;;;;;;21.77;2.25;;;;;;;;;;5063253;28;20144;-66
2021/10/17 01:40:19;;;;;;;11.50;2.20;;;;;;;;;;5062493;28;20120;-67
2021/10/17 01:42:46;;;;;;;13.53;1.77;;;;;;;;;;5065530;28;20065;-66
2021/10/17 01:45:12;;;;;;;19.08;2.10;;;;;;;;;;5060922;28;20473;-66
2021/10/17 01:47:46;;;;;;;11.43;1.90;;;;;;;;;;5062925;28;20315;-66
2021/10/17 01:50:13;;;;;;;13.15;2.22;;;;;;;;;;5061642;28;20099;-66
2021/10/17 01:52:39;;;;;;;5.78;1.80;;;;;;;;;;5066026;28;20114;-66
2021/10/17 01:55:06;;;;;;;10.90;1.70;;;;;;;;;;5065366;28;20472;-66
2021/10/17 01:57:32;;;;;;;10.52;2.03;;;;;;;;;;5063579;28;20600;-66
2021/10/17 01:59:59;;;;;;;7.57;1.90;;;;;;;;;;5060470;28;20591;-66
2021/10/17 02:02:25;;;;;;;10.85;1.92;;;;;;;;;;5062793;28;20537;-66
2021/10/17 02:04:52;;;;;;;11.50;1.88;;;;;;;;;;5059787;28;20505;-66
2021/10/17 02:07:19;;;;;;;8.38;1.80;;;;;;;;;;5060388;28;20144;-66
2021/10/17 02:09:45;;;;;;;11.48;1.42;;;;;;;;;;5061923;28;20310;-66
2021/10/17 02:12:12;;;;;;;5.70;1.15;;;;;;;;;;5056912;28;20136;-66
2021/10/17 02:14:38;;;;;;;5.37;1.20;;;;;;;;;;5064919;28;20139;-66
2021/10/17 02:17:06;;;;;;;8.88;1.63;;;;;;;;;;5058391;28;20080;-66
2021/10/17 02:19:32;;;;;;;3.13;1.25;;;;;;;;;;5066868;28;20075;-66
2021/10/17 02:21:59;;;;;;;6.13;1.50;;;;;;;;;;5057783;28;20130;-66
2021/10/17 02:24:25;;;;;;;8.70;1.20;;;;;;;;;;5065068;28;20480;-66
2021/10/17 02:26:51;;;;;;;14.25;1.60;;;;;;;;;;5059278;28;20472;-66
2021/10/17 02:29:18;;;;;;;6.50;1.67;;;;;;;;;;5061688;28;20140;-66
2021/10/17 02:31:45;;;;;;;7.72;1.27;;;;;;;;;;5063909;28;20476;-66
2021/10/17 02:34:11;;;;;;;5.45;1.60;;;;;;;;;;5057370;28;20139;-66
2021/10/17 02:36:38;;;;;;;13.47;1.47;;;;;;;;;;5068802;28;20083;-66
2021/10/17 02:39:04;;;;;;;11.15;1.98;;;;;;;;;;5064719;28;20127;-66
2021/10/17 02:41:31;;;;;;;7.10;1.60;;;;;;;;;;5072017;28;20102;-66
2021/10/17 02:43:58;;;;;;;8.68;1.95;;;;;;;;;;5070009;28;20041;-66
2021/10/17 02:46:24;;;;;;;5.78;1.80;;;;;;;;;;5066090;28;20132;-66
2021/10/17 02:48:50;;;;;;;6.03;1.92;;;;;;;;;;5067436;28;20045;-66
2021/10/17 02:51:17;;;;;;;21.80;2.47;;;;;;;;;;5065632;28;20072;-67
2021/10/17 02:53:44;;;;;;;10.27;1.75;;;;;;;;;;5063036;28;20087;-66
2021/10/17 02:56:11;;;;;;;13.35;1.60;;;;;;;;;;5067102;28;20547;-66
2021/10/17 02:58:37;;;;;;;7.50;1.90;;;;;;;;;;5062614;28;20106;-66
2021/10/17 03:01:04;;;;;;;12.98;2.20;;;;;;;;;;5065909;28;20146;-66
2021/10/17 03:03:30;;;;;;;9.45;1.70;;;;;;;;;;5058872;28;20140;-66
2021/10/17 03:05:57;;;;;;;16.13;2.25;;;;;;;;;;5069348;28;20045;-66
2021/10/17 03:08:23;;;;;;;15.32;1.58;;;;;;;;;;5068581;28;20564;-66
2021/10/17 03:10:50;;;;;;;8.10;1.80;;;;;;;;;;5067797;28;20090;-66
2021/10/17 03:13:16;;;;;;;13.82;1.83;;;;;;;;;;5069562;28;20080;-66
2021/10/17 03:15:43;;;;;;;12.10;1.85;;;;;;;;;;5069318;28;20083;-66
2021/10/17 03:18:09;;;;;;;7.80;2.00;;;;;;;;;;5063844;28;20071;-66
2021/10/17 03:20:36;;;;;;;9.43;2.20;;;;;;;;;;5066373;28;20135;-66
2021/10/17 03:23:03;;;;;;;12.10;1.83;;;;;;;;;;5064542;28;20083;-68
2021/10/17 03:25:29;;;;;;;19.30;2.60;;;;;;;;;;5062168;28;20049;-66
2021/10/17 03:27:56;;;;;;;12.73;2.13;;;;;;;;;;5059751;28;20139;-66
2021/10/17 03:30:23;;;;;;;15.73;2.05;;;;;;;;;;5061350;28;20132;-66
2021/10/17 03:32:50;;;;;;;10.00;2.20;;;;;;;;;;5066707;28;20466;-66
2021/10/17 03:35:17;;;;;;;10.13;2.20;;;;;;;;;;5066820;28;20072;-66
2021/10/17 03:37:44;;;;;;;12.38;1.75;;;;;;;;;;5061731;28;20087;-66
2021/10/17 03:40:10;;;;;;;15.10;2.20;;;;;;;;;;5062082;28;20140;-66
2021/10/17 03:42:37;;;;;;;14.30;2.25;;;;;;;;;;5066284;28;20579;-66
2021/10/17 03:45:04;;;;;;;8.48;1.75;;;;;;;;;;5068773;28;20068;-66
2021/10/17 03:47:31;;;;;;;13.65;2.28;;;;;;;;;;5069419;28;20189;-66
2021/10/17 03:49:57;;;;;;;15.20;1.98;;;;;;;;;;5068300;28;20117;-66
2021/10/17 03:52:24;;;;;;;11.80;2.25;;;;;;;;;;5065172;28;20575;-66
2021/10/17 03:54:51;;;;;;;14.68;2.15;;;;;;;;;;5066451;28;20168;-66
2021/10/17 03:57:17;;;;;;;14.70;2.40;;;;;;;;;;5063370;28;20131;-66
2021/10/17 03:59:44;;;;;;;19.15;2.60;;;;;;;;;;5063870;28;20087;-66
2021/10/17 04:02:11;;;;;;;16.43;2.27;;;;;;;;;;5065734;28;20075;-66
2021/10/17 04:04:37;;;;;;;12.02;2.15;;;;;;;;;;5064124;28;20335;-66
2021/10/17 04:07:05;;;;;;;9.98;2.25;;;;;;;;;;5066118;28;20080;-66
2021/10/17 04:09:31;;;;;;;10.57;1.95;;;;;;;;;;5064058;28;20455;-66
2021/10/17 04:11:58;;;;;;;20.57;2.60;;;;;;;;;;5069132;28;20095;-67
2021/10/17 04:14:25;;;;;;;19.85;2.80;;;;;;;;;;5064396;28;20718;-66
2021/10/17 04:16:51;;;;;;;19.25;2.10;;;;;;;;;;5068806;28;20127;-66
2021/10/17 04:19:18;;;;;;;13.02;2.05;;;;;;;;;;5066051;28;20466;-66
2021/10/17 04:21:44;;;;;;;13.65;2.60;;;;;;;;;;5060062;28;20157;-66
2021/10/17 04:24:11;;;;;;;18.63;2.60;;;;;;;;;;5065825;28;20084;-66
2021/10/17 04:26:37;;;;;;;17.83;2.40;;;;;;;;;;5060177;28;20083;-66
2021/10/17 04:29:04;;;;;;;14.60;2.40;;;;;;;;;;5064741;28;20575;-66
2021/10/17 04:31:30;;;;;;;17.33;2.80;;;;;;;;;;5066292;28;20068;-66
2021/10/17 04:33:57;;;;;;;19.10;2.08;;;;;;;;;;5065078;28;20571;-66
2021/10/17 04:36:23;;;;;;;14.02;2.17;;;;;;;;;;5063471;28;20148;-66
2021/10/17 04:38:53;;;;;;;22.45;2.63;;;;;;;;;;5067378;28;20052;-66
2021/10/17 04:41:20;;;;;;;20.38;2.50;;;;;;;;;;5061064;28;20076;-66
2021/10/17 04:43:46;;;;;;;9.32;2.28;;;;;;;;;;5067240;28;20140;-66
2021/10/17 04:46:13;;;;;;;19.50;2.72;;;;;;;;;;5062402;28;20143;-66
2021/10/17 04:48:40;;;;;;;6.30;2.00;;;;;;;;;;5061238;28;20123;-66
2021/10/17 04:51:07;;;;;;;10.63;1.40;;;;;;;;;;5064194;28;20158;-66
2021/10/17 04:53:33;;;;;;;9.25;2.35;;;;;;;;;;5063433;28;20139;-66
2021/10/17 04:56:00;;;;;;;16.67;2.30;;;;;;;;;;5063192;28;20468;-66
2021/10/17 04:58:28;;;;;;;12.27;1.75;;;;;;;;;;5066882;28;20134;-66
2021/10/17 05:00:58;;;;;;;15.98;2.40;;;;;;;;;;5061527;28;20049;-66
2021/10/17 05:03:24;;;;;;;6.70;2.10;;;;;;;;;;5066953;28;20139;-66
2021/10/17 05:05:51;;;;;;;14.57;2.28;;;;;;;;;;5061492;28;20164;-66
2021/10/17 05:08:17;;;;;;;21.48;2.15;;;;;;;;;;5064231;28;20088;-67
2021/10/17 05:10:45;;;;;;;12.95;2.00;;;;;;;;;;5060606;28;20052;-66
2021/10/17 05:13:11;;;;;;;19.27;2.13;;;;;;;;;;5066835;28;20068;-66
2021/10/17 05:15:38;;;;;;;12.30;2.72;;;;;;;;;;5062810;28;20049;-66
2021/10/17 05:18:05;;;;;;;14.75;2.45;;;;;;;;;;5064525;28;20139;-66
2021/10/17 05:20:32;;;;;;;21.97;2.93;;;;;;;;;;5065885;28;20757;-66
2021/10/17 05:22:58;;;;;;;15.80;2.45;;;;;;;;;;5063060;28;20080;-66
2021/10/17 05:25:25;;;;;;;15.33;2.30;;;;;;;;;;5062320;28;20088;-66
2021/10/17 05:27:51;;;;;;;16.73;2.80;;;;;;;;;;5064978;28;20083;-66
2021/10/17 05:30:18;;;;;;;15.43;2.40;;;;;;;;;;5064118;28;20135;-66
2021/10/17 05:32:45;;;;;;;18.50;2.65;;;;;;;;;;5066845;28;20079;-66
2021/10/17 05:35:12;;;;;;;11.30;2.28;;;;;;;;;;5059947;28;20068;-66
2021/10/17 05:37:38;;;;;;;12.15;2.05;;;;;;;;;;5059349;28;20575;-66
2021/10/17 05:40:05;;;;;;;15.77;2.43;;;;;;;;;;5060299;28;20131;-66
2021/10/17 05:42:32;;;;;;;13.93;2.70;;;;;;;;;;5059387;28;20087;-66
2021/10/17 05:44:58;;;;;;;13.30;2.45;;;;;;;;;;5063240;28;20123;-66
2021/10/17 05:47:24;;;;;;;15.18;2.30;;;;;;;;;;5067633;28;20140;-66
2021/10/17 05:49:51;;;;;;;11.05;2.05;;;;;;;;;;5064183;28;20076;-66
2021/10/17 05:52:17;;;;;;;12.73;2.33;;;;;;;;;;5062031;28;20163;-66
2021/10/17 05:54:44;;;;;;;22.23;2.27;;;;;;;;;;5065166;28;20079;-66
2021/10/17 05:57:10;;;;;;;13.52;2.80;;;;;;;;;;5061084;28;20772;-66
2021/10/17 05:59:37;;;;;;;9.15;2.10;;;;;;;;;;5057631;28;20110;-66
2021/10/17 06:02:04;;;;;;;9.50;2.07;;;;;;;;;;5066238;28;20464;-66
2021/10/17 06:04:30;;;;;;;109.85;4.70;;;;;;;;;;5058865;28;20040;-66
2021/10/17 06:06:57;;;;;;;118.63;5.72;;;;;;;;;;5066287;28;20087;-66
2021/10/17 06:09:24;;;;;;;32.40;2.75;;;;;;;;;;5064807;28;20098;-66
2021/10/17 06:11:50;;;;;;;9.68;2.08;;;;;;;;;;5061437;28;20080;-66
2021/10/17 06:14:16;;;;;;;6.65;1.92;;;;;;;;;;5045304;28;20131;-66
2021/10/17 06:16:43;;;;;;;9.45;2.28;;;;;;;;;;5062840;28;20083;-66
2021/10/17 06:19:10;;;;;;;12.27;1.95;;;;;;;;;;5054874;28;20131;-66
2021/10/17 06:21:36;;;;;;;9.32;2.60;;;;;;;;;;5060725;28;20139;-66
2021/10/17 06:24:03;;;;;;;13.18;2.65;;;;;;;;;;5062481;28;20076;-66
2021/10/17 06:26:30;;;;;;;10.48;2.55;;;;;;;;;;5066200;28;20064;-66
2021/10/17 06:28:56;;;;;;;9.95;2.40;;;;;;;;;;5062295;28;20087;-66
2021/10/17 06:31:22;;;;;;;13.07;3.00;;;;;;;;;;5063875;28;20085;-66
2021/10/17 06:33:49;;;;;;;16.48;2.78;;;;;;;;;;5062852;28;20087;-65
2021/10/17 06:36:15;;;;;;;24.85;2.95;;;;;;;;;;5053394;28;20076;-66
2021/10/17 06:38:42;;;;;;;14.70;1.83;;;;;;;;;;5064507;28;20087;-66
2021/10/17 06:41:08;;;;;;;10.32;2.65;;;;;;;;;;5064666;28;20072;-66
2021/10/17 06:43:35;;;;;;;11.07;2.60;;;;;;;;;;5060248;28;20048;-66
2021/10/17 06:46:02;;;;;;;19.83;2.78;;;;;;;;;;5060212;28;20044;-66
2021/10/17 06:48:28;;;;;;;16.13;2.83;;;;;;;;;;5059414;28;20501;-66
2021/10/17 06:50:54;;;;;;;7.05;2.50;;;;;;;;;;5058521;28;20076;-66
2021/10/17 06:53:21;;;;;;;11.43;2.53;;;;;;;;;;5058073;28;20092;-66
2021/10/17 06:55:47;;;;;;;9.88;2.80;;;;;;;;;;5057980;28;20079;-66
2021/10/17 06:58:14;;;;;;;13.77;4.00;;;;;;;;;;5061808;28;20244;-66
2021/10/17 07:00:41;;;;;;;13.98;3.78;;;;;;;;;;5059786;28;20052;-66
2021/10/17 07:03:07;;;;;;;10.37;3.40;;;;;;;;;;5063252;28;20063;-66
2021/10/17 07:05:34;;;;;;;9.55;3.00;;;;;;;;;;5059593;28;20310;-66
2021/10/17 07:08:00;;;;;;;16.73;3.58;;;;;;;;;;5059195;28;20255;-66
2021/10/17 07:10:27;;;;;;;12.23;2.50;;;;;;;;;;5062168;28;20486;-66
2021/10/17 07:12:53;;;;;;;11.38;2.60;;;;;;;;;;5057722;28;20124;-66
2021/10/17 07:15:20;;;;;;;10.45;2.60;;;;;;;;;;5058786;28;20053;-67
2021/10/17 07:17:47;;;;;;;13.35;2.75;;;;;;;;;;5056594;28;20093;-66
2021/10/17 07:20:29;;;;;;;6.28;2.15;;;;;;;;;;5037320;28;20113;-66
2021/10/17 07:22:56;;;;;;;7.20;2.40;;;;;;;;;;5042400;28;20761;-66
2021/10/17 07:25:23;;;;;;;9.68;2.17;;;;;;;;;;5043933;28;20283;-66
2021/10/17 07:27:52;;;;;;;13.25;2.63;;;;;;;;;;5047882;28;20085;-66
2021/10/17 07:30:20;;;;;;;9.60;2.05;;;;;;;;;;5049685;28;20076;-66
2021/10/17 07:32:47;;;;;;;19.02;2.50;;;;;;;;;;5046885;28;20056;-66
2021/10/17 07:35:13;;;;;;;8.82;2.00;;;;;;;;;;5044358;28;20438;-66
2021/10/17 07:37:40;;;;;;;5.28;1.83;;;;;;;;;;5044839;28;20316;-66
2021/10/17 07:40:07;;;;;;;12.90;2.58;;;;;;;;;;5049479;28;20080;-66
2021/10/17 07:42:35;;;;;;;16.83;2.57;;;;;;;;;;5043531;28;20145;-66
2021/10/17 07:45:02;;;;;;;15.27;3.00;;;;;;;;;;5048523;28;20284;-66
2021/10/17 07:47:31;;;;;;;7.73;2.50;;;;;;;;;;5045291;28;20892;-66
2021/10/17 07:49:57;;;;;;;10.05;2.58;;;;;;;;;;5045628;28;20136;-66
2021/10/17 07:52:24;;;;;;;8.20;1.83;;;;;;;;;;5046012;28;20597;-66
2021/10/17 07:54:51;;;;;;;14.15;2.50;;;;;;;;;;5044576;28;20120;-66
2021/10/17 07:57:17;;;;;;;12.15;2.40;;;;;;;;;;5042731;28;20132;-66
2021/10/17 07:59:44;;;;;;;12.25;2.30;;;;;;;;;;5043426;28;20087;-66
2021/10/17 08:02:10;;;;;;;6.80;1.80;;;;;;;;;;5047706;28;20128;-66
2021/10/17 08:04:38;;;;;;;7.68;1.75;;;;;;;;;;5043395;28;20513;-66
2021/10/17 08:07:05;;;;;;;5.72;1.77;;;;;;;;;;5044612;28;20045;-66
2021/10/17 08:09:31;;;;;;;6.30;1.88;;;;;;;;;;5046660;28;20084;-66
2021/10/17 08:11:58;;;;;;;10.18;2.45;;;;;;;;;;5024018;28;20128;-66
2021/10/17 08:14:25;;;;;;;6.50;2.22;;;;;;;;;;5046903;28;20049;-66
2021/10/17 08:16:52;;;;;;;11.70;2.65;;;;;;;;;;5047511;28;20084;-66
2021/10/17 08:19:18;;;;;;;5.37;1.80;;;;;;;;;;5063429;28;20084;-67
2021/10/17 08:21:45;;;;;;;4.50;2.10;;;;;;;;;;5065534;28;20331;-66
2021/10/17 08:24:12;;;;;;;5.07;1.33;;;;;;;;;;5061648;28;20080;-66
2021/10/17 08:26:38;;;;;;;7.55;1.80;;;;;;;;;;5063272;28;20055;-66
2021/10/17 08:29:05;;;;;;;5.25;2.03;;;;;;;;;;5062684;28;20135;-66
2021/10/17 08:31:31;;;;;;;4.65;1.35;;;;;;;;;;5048537;28;20147;-66
2021/10/17 08:33:58;;;;;;;3.33;1.23;;;;;;;;;;5058637;28;20131;-66
2021/10/17 08:36:24;;;;;;;1.93;1.10;;;;;;;;;;5062077;28;20123;-66
2021/10/17 08:39:11;;;;;;;7.32;1.55;;;;;;;;;;5057510;28;20066;-66
2021/10/17 08:41:38;;;;;;;2.27;1.47;;;;;;;;;;5069318;28;20079;-66
2021/10/17 08:44:04;;;;;;;4.03;1.48;;;;;;;;;;5064386;28;20390;-66
2021/10/17 08:46:32;;;;;;;5.95;1.52;;;;;;;;;;5062536;28;20045;-67
2021/10/17 08:48:59;;;;;;;5.90;1.23;;;;;;;;;;5068513;28;20095;-66
2021/10/17 08:51:26;;;;;;;2.20;1.10;;;;;;;;;;5060540;28;20048;-66
2021/10/17 08:53:53;;;;;;;3.40;0.95;;;;;;;;;;5061835;28;20287;-66
2021/10/17 08:56:20;;;;;;;2.95;1.27;;;;;;;;;;5060184;28;20103;-66
2021/10/17 08:58:46;;;;;;;1.45;1.08;;;;;;;;;;5056046;28;20080;-66
2021/10/17 09:01:14;;;;;;;3.42;1.20;;;;;;;;;;5057610;28;20143;-66
2021/10/17 09:03:41;;;;;;;8.25;1.40;;;;;;;;;;5058655;28;20071;-66
2021/10/17 09:06:34;;;;;;;4.05;1.02;;;;;;;;;;5063163;28;20052;-66
2021/10/17 09:09:11;;;;;;;3.05;1.10;;;;;;;;;;5065720;28;20044;-66
2021/10/17 09:11:37;;;;;;;4.35;1.30;;;;;;;;;;5066763;28;20052;-66
2021/10/17 09:14:05;;;;;;;2.95;0.95;;;;;;;;;;5067439;28;20072;-66
2021/10/17 09:16:35;;;;;;;1.85;1.08;;;;;;;;;;5068815;28;20068;-66
2021/10/17 09:19:12;;;;;;;2.05;0.80;;;;;;;;;;5065171;28;22274;-66
2021/10/17 09:21:52;;;;;;;3.97;1.20;;;;;;;;;;5061938;28;20130;-66
2021/10/17 09:24:26;;;;;;;2.15;1.00;;;;;;;;;;5063683;28;20139;-66
2021/10/17 09:27:06;;;;;;;3.05;0.73;;;;;;;;;;5057149;28;20658;-66
2021/10/17 09:29:33;;;;;;;7.53;1.42;;;;;;;;;;5065581;28;20086;-66
2021/10/17 09:32:00;;;;;;;4.30;1.58;;;;;;;;;;5054584;28;20083;-66
2021/10/17 09:34:27;;;;;;;5.05;1.65;;;;;;;;;;5063822;28;20045;-66
2021/10/17 09:37:12;;;;;;;2.75;1.10;;;;;;;;;;5065749;28;20072;-66
2021/10/17 09:39:44;;;;;;;2.28;1.38;;;;;;;;;;5061035;28;20500;-66
2021/10/17 09:42:17;;;;;;;2.75;0.85;;;;;;;;;;5058918;28;20053;-66
2021/10/17 09:44:45;;;;;;;1.98;0.82;;;;;;;;;;5062184;28;20147;-66
2021/10/17 09:47:11;;;;;;;2.15;0.88;;;;;;;;;;5061130;28;20516;-66
2021/10/17 09:49:38;;;;;;;4.63;0.93;;;;;;;;;;5062598;28;20482;-66
2021/10/17 09:52:23;;;;;;;3.15;1.02;;;;;;;;;;5061166;28;20063;-66
2021/10/17 09:54:50;;;;;;;2.47;1.25;;;;;;;;;;5061711;28;20062;-66
2021/10/17 09:57:17;;;;;;;;;;;;;;;;;;5058560;28;20106;-66
2021/10/17 09:59:43;;;;;;;2.22;0.82;;;;;;;;;;5064086;28;20297;-65
2021/10/17 10:02:11;;;;;;;3.78;0.98;;;;;;;;;;5061736;28;20136;-66
2021/10/17 10:04:45;;;;;;;2.22;1.08;;;;;;;;;;5058598;28;20052;-66
2021/10/17 10:07:14;;;;;;;3.35;0.85;;;;;;;;;;5056818;28;20573;-66
2021/10/17 10:09:46;;;;;;;2.88;1.10;;;;;;;;;;5060495;28;20051;-66
2021/10/17 10:12:13;;;;;;;4.45;1.02;;;;;;;;;;5057567;28;20099;-65
2021/10/17 10:14:43;;;;;;;3.03;0.80;;;;;;;;;;5062668;28;20131;-66
2021/10/17 10:17:10;;;;;;;1.83;0.60;;;;;;;;;;5055442;28;20497;-66
2021/10/17 10:19:38;;;;;;;1.75;1.08;;;;;;;;;;5061911;28;20092;-66
2021/10/17 10:22:04;;;;;;;3.92;0.85;;;;;;;;;;5067110;28;20075;-66
2021/10/17 10:24:32;;;;;;;3.35;1.08;;;;;;;;;;5061933;28;20107;-66
2021/10/17 10:26:59;;;;;;;1.85;0.60;;;;;;;;;;5061337;28;20168;-65
2021/10/17 10:29:28;;;;;;;0.98;0.60;;;;;;;;;;5063149;28;20059;-66
2021/10/17 10:31:55;;;;;;;1.45;1.05;;;;;;;;;;5062067;28;20492;-67
2021/10/17 10:34:22;;;;;;;3.40;1.55;;;;;;;;;;5065072;28;20076;-66
2021/10/17 10:36:49;;;;;;;4.82;1.50;;;;;;;;;;5060295;28;20139;-66
2021/10/17 10:39:16;;;;;;;2.88;1.08;;;;;;;;;;5061283;28;20140;-66
2021/10/17 10:41:46;;;;;;;2.97;1.17;;;;;;;;;;5059457;28;20077;-66
2021/10/17 10:44:16;;;;;;;2.08;0.70;;;;;;;;;;5064587;28;20132;-66
2021/10/17 10:46:46;;;;;;;1.77;0.80;;;;;;;;;;5059852;28;20573;-66
2021/10/17 10:49:33;;;;;;;1.52;0.85;;;;;;;;;;5061722;28;20834;-66
2021/10/17 10:52:00;;;;;;;1.88;0.70;;;;;;;;;;5061456;28;20079;-66
2021/10/17 10:54:29;;;;;;;4.93;0.77;;;;;;;;;;5061701;28;20040;-66
2021/10/17 10:56:56;;;;;;;4.38;1.30;;;;;;;;;;5061938;28;20083;-66
2021/10/17 10:59:25;;;;;;;6.80;1.52;;;;;;;;;;5059746;28;20079;-66
2021/10/17 11:02:19;;;;;;;1.48;0.60;;;;;;;;;;5064213;28;20488;-66
2021/10/17 11:04:45;;;;;;;2.75;0.82;;;;;;;;;;5063370;28;20143;-66
2021/10/17 11:07:32;;;;;;;4.07;0.43;;;;;;;;;;5070007;28;20079;-66
2021/10/17 11:10:18;;;;;;;2.97;0.82;;;;;;;;;;5062397;28;20084;-66
2021/10/17 11:12:45;;;;;;;0.60;0.40;;;;;;;;;;5061367;28;20090;-66
2021/10/17 11:15:12;;;;;;;1.17;0.60;;;;;;;;;;5067073;28;20098;-66
2021/10/17 11:17:49;;;;;;;3.42;0.95;;;;;;;;;;5063274;28;20076;-66
2021/10/17 11:20:19;;;;;;;2.35;0.70;;;;;;;;;;5066882;28;20148;-66
2021/10/17 11:22:46;;;;;;;4.05;0.80;;;;;;;;;;5064836;28;20076;-66
2021/10/17 11:25:17;;;;;;;0.60;0.45;;;;;;;;;;5066877;28;20092;-66
2021/10/17 11:27:43;;;;;;;0.43;0.40;;;;;;;;;;5068430;28;20400;-66
2021/10/17 11:30:25;;;;;;;0.80;0.50;;;;;;;;;;5067222;28;20084;-66
2021/10/17 11:32:52;;;;;;;1.17;0.50;;;;;;;;;;5064615;28;20088;-66
2021/10/17 11:35:25;;;;;;;2.42;0.60;;;;;;;;;;5063686;28;20143;-66
2021/10/17 11:37:52;;;;;;;1.10;0.52;;;;;;;;;;5061431;28;20068;-66
2021/10/17 11:40:18;;;;;;;0.60;0.37;;;;;;;;;;5061909;28;20056;-66
2021/10/17 11:42:48;;;;;;;2.13;0.67;;;;;;;;;;5059767;28;20744;-66
2021/10/17 11:45:18;;;;;;;1.48;0.40;;;;;;;;;;5066338;28;20127;-66
2021/10/17 11:47:46;;;;;;;2.05;0.63;;;;;;;;;;5069051;28;20086;-67
2021/10/17 11:50:17;;;;;;;0.93;0.30;;;;;;;;;;5067622;28;20094;-67
2021/10/17 11:53:04;;;;;;;1.17;0.70;;;;;;;;;;5063797;28;20131;-66
2021/10/17 11:55:32;;;;;;;0.98;0.50;;;;;;;;;;5061676;28;20484;-66
2021/10/17 11:57:59;;;;;;;0.68;0.43;;;;;;;;;;5067576;28;20079;-66
2021/10/17 12:00:29;;;;;;;0.98;0.65;;;;;;;;;;5064453;28;20409;-66
2021/10/17 12:02:56;;;;;;;3.47;0.60;;;;;;;;;;5060570;28;20106;-66
2021/10/17 12:05:24;;;;;;;2.55;0.75;;;;;;;;;;5065628;28;20580;-66
2021/10/17 12:07:51;;;;;;;1.17;0.60;;;;;;;;;;5065579;28;20076;-67
2021/10/17 12:10:17;;;;;;;1.60;0.77;;;;;;;;;;5056570;28;20053;-66
2021/10/17 12:12:44;;;;;;;1.23;0.52;;;;;;;;;;5049306;28;20040;-66
2021/10/17 12:15:12;;;;;;;1.58;0.80;;;;;;;;;;5059248;28;20146;-67
2021/10/17 12:17:39;;;;;;;5.10;1.00;;;;;;;;;;5067091;28;20048;-66
2021/10/17 12:20:10;;;;;;;1.48;0.68;;;;;;;;;;5058915;28;20123;-66
2021/10/17 12:22:40;;;;;;;3.13;0.90;;;;;;;;;;5063908;28;20056;-67
2021/10/17 12:25:09;;;;;;;1.77;0.85;;;;;;;;;;5063446;28;20623;-67
2021/10/17 12:27:37;;;;;;;2.60;0.60;;;;;;;;;;5067988;28;20084;-67
2021/10/17 12:30:03;;;;;;;1.40;0.75;;;;;;;;;;5062777;28;20077;-66
2021/10/17 12:32:45;;;;;;;1.60;0.50;;;;;;;;;;5065097;28;20128;-67
2021/10/17 12:35:19;;;;;;;0.55;0.35;;;;;;;;;;5061522;28;20095;-66
2021/10/17 12:37:46;;;;;;;0.30;0.30;;;;;;;;;;5066501;28;20477;-67
2021/10/17 12:40:12;;;;;;;0.57;0.30;;;;;;;;;;5068144;28;20140;-67
2021/10/17 12:42:46;;;;;;;1.25;0.47;;;;;;;;;;5063082;28;20055;-67
2021/10/17 12:45:13;;;;;;;0.50;0.35;;;;;;;;;;5060563;28;20098;-66
2021/10/17 12:47:40;;;;;;;1.15;0.55;;;;;;;;;;5065554;28;20052;-66
2021/10/17 12:50:13;;;;;;;0.50;0.50;;;;;;;;;;5059419;28;20127;-66
2021/10/17 12:52:40;;;;;;;1.38;0.57;;;;;;;;;;5062874;28;20041;-67
2021/10/17 12:55:27;;;;;;;2.42;0.63;;;;;;;;;;5061757;28;20524;-66
2021/10/17 12:57:53;;;;;;;;;;;;;;;;;;5064799;28;20076;-66
2021/10/17 13:00:20;;;;;;;1.02;0.63;;;;;;;;;;5062584;28;19956;-66
2021/10/17 13:02:47;;;;;;;1.53;0.70;;;;;;;;;;5065431;28;20076;-67
2021/10/17 13:05:14;;;;;;;1.20;0.68;;;;;;;;;;5058713;28;20110;-67
2021/10/17 13:07:41;;;;;;;0.68;0.45;;;;;;;;;;5063303;28;20065;-66
2021/10/17 13:10:12;;;;;;;1.83;0.60;;;;;;;;;;5062640;28;20132;-67
2021/10/17 13:12:56;;;;;;;2.50;1.15;;;;;;;;;;5059220;28;20668;-67
2021/10/17 13:15:29;;;;;;;1.90;1.20;;;;;;;;;;5067375;28;20072;-66
2021/10/17 13:17:58;;;;;;;1.48;0.70;;;;;;;;;;5056579;28;20147;-67
2021/10/17 13:20:25;;;;;;;1.02;0.50;;;;;;;;;;5068203;28;20075;-67
2021/10/17 13:22:58;;;;;;;1.02;0.47;;;;;;;;;;5063046;28;20049;-67
2021/10/17 13:25:25;;;;;;;2.67;0.50;;;;;;;;;;5060936;28;20075;-67
2021/10/17 13:27:52;;;;;;;0.50;0.40;;;;;;;;;;5065456;28;20123;-67
2021/10/17 13:30:19;;;;;;;1.20;0.60;;;;;;;;;;5066010;28;20326;-67
2021/10/17 13:32:46;;;;;;;1.30;0.50;;;;;;;;;;5065188;28;20127;-67
2021/10/17 13:35:14;;;;;;;1.45;0.70;;;;;;;;;;5066484;28;20053;-66
2021/10/17 13:37:40;;;;;;;3.58;0.60;;;;;;;;;;5064851;28;20080;-66
2021/10/17 13:40:08;;;;;;;1.38;0.65;;;;;;;;;;5059537;28;20135;-67
2021/10/17 13:42:34;;;;;;;2.60;0.90;;;;;;;;;;5061395;28;20132;-67
2021/10/17 13:45:01;;;;;;;0.50;0.50;;;;;;;;;;5065898;28;20052;-66
2021/10/17 13:47:28;;;;;;;0.75;0.68;;;;;;;;;;5066931;28;20077;-67
2021/10/17 13:49:54;;;;;;;1.55;0.65;;;;;;;;;;5063623;28;20083;-67
2021/10/17 13:52:21;;;;;;;2.72;0.57;;;;;;;;;;5064368;28;20557;-67
2021/10/17 13:54:47;;;;;;;0.73;0.55;;;;;;;;;;5065232;28;20132;-66
2021/10/17 13:57:14;;;;;;;1.05;0.43;;;;;;;;;;5064574;28;20076;-66
2021/10/17 13:59:40;;;;;;;1.85;0.55;;;;;;;;;;5062370;28;20079;-66
2021/10/17 14:02:08;;;;;;;1.85;0.57;;;;;;;;;;5062605;28;20076;-66
2021/10/17 14:04:35;;;;;;;;;;;;;;;;;;5065746;28;20094;-66
2021/10/17 14:07:01;;;;;;;1.67;1.02;;;;;;;;;;5060128;28;19967;-66
2021/10/17 14:09:28;;;;;;;1.20;0.70;;;;;;;;;;5060085;28;20470;-67
2021/10/17 14:11:56;;;;;;;1.38;0.55;;;;;;;;;;5063305;28;20044;-67
2021/10/17 14:14:24;;;;;;;3.67;0.68;;;;;;;;;;5063109;28;20098;-66
2021/10/17 14:16:51;;;;;;;3.25;0.60;;;;;;;;;;5058317;28;20048;-66
2021/10/17 14:19:17;;;;;;;0.98;0.30;;;;;;;;;;5042091;28;20196;-67
2021/10/17 14:21:45;;;;;;;1.17;0.55;;;;;;;;;;5062433;28;20068;-67
2021/10/17 14:24:16;;;;;;;1.85;0.68;;;;;;;;;;5060224;28;20052;-66
2021/10/17 14:26:42;;;;;;;2.67;0.70;;;;;;;;;;5061159;28;20091;-66
2021/10/17 14:29:09;;;;;;;1.77;0.88;;;;;;;;;;5059053;28;20052;-66
2021/10/17 14:31:36;;;;;;;;;;;;;;;;;;5062829;28;20649;-66
2021/10/17 14:34:03;;;;;;;0.90;0.60;;;;;;;;;;5058526;28;19921;-67
2021/10/17 14:36:30;;;;;;;1.10;0.65;;;;;;;;;;5061984;28;20091;-66
2021/10/17 14:38:56;;;;;;;2.07;0.90;;;;;;;;;;5061389;28;20140;-68
2021/10/17 14:41:23;;;;;;;2.03;0.68;;;;;;;;;;5064010;28;20135;-66
2021/10/17 14:43:51;;;;;;;0.53;0.50;;;;;;;;;;5059711;28;20135;-66